| time (UTC) | temp C | wind direction | speed KPH | gust KPH | rain 1hr cm | rain 24hr cm | rain mn cm | humidity % | barometer mb |
| 20260831022016 | 21 | 0.0 | 1.6 | 0.00 | 0.00 | 0.00 | 88 | 1022.0 | |
| 20260831021036 | 21 | 0.0 | 1.6 | 0.00 | 0.00 | 0.00 | 89 | 1021.9 | |
| 20260831020016 | 21 | 0.0 | 3.2 | 0.00 | 0.00 | 0.00 | 89 | 1021.9 | |
| 20260831015016 | 22 | 0.0 | 3.2 | 0.00 | 0.00 | 0.00 | 89 | 1021.7 | |
| 20260831014019 | 22 | 0.0 | 3.2 | 0.00 | 0.00 | 0.00 | 88 | 1021.7 | |
| 20260831013019 | 22 | 0.0 | 3.2 | 0.00 | 0.00 | 0.00 | 88 | 1021.6 | |
| 20260831012018 | 22 | 0.0 | 3.2 | 0.00 | 0.00 | 0.00 | 88 | 1021.5 | |
| 20260831011016 | 23 | 0.0 | 0.0 | 0.00 | 0.00 | 0.00 | 87 | 1021.3 | |
| 20260831010015 | 23 | 0.0 | 0.0 | 0.00 | 0.00 | 0.00 | 86 | 1021.5 | |
| 20260831005016 | 23 | 0.0 | 1.6 | 0.00 | 0.00 | 0.00 | 86 | 1021.3 | |
| 20260831004015 | 23 | 0.0 | 0.0 | 0.00 | 0.00 | 0.00 | 85 | 1021.1 | |
| 20260831003016 | 24 | 0.0 | 0.0 | 0.00 | 0.00 | 0.00 | 83 | 1021.2 | |
| 20260831002035 | 24 | 0.0 | 1.6 | 0.00 | 0.00 | 0.00 | 82 | 1021.0 | |
| 20260831001016 | 25 | 0.0 | 1.6 | 0.00 | 0.00 | 0.00 | 81 | 1020.7 | |
| 20260831000015 | 25 | 0.0 | 1.6 | 0.00 | 0.00 | 0.00 | 80 | 1020.8 | |
| 20260830235035 | 26 | 0.0 | 1.6 | 0.00 | 0.00 | 0.00 | 80 | 1020.8 | |
| 20260830234037 | 26 | 0.0 | 3.2 | 0.00 | 0.00 | 0.00 | 79 | 1020.6 | |
| 20260830233017 | 27 | 0.0 | 1.6 | 0.00 | 0.00 | 0.00 | 78 | 1020.7 | |
| 20260830232017 | 27 | 338 | 1.6 | 1.6 | 0.00 | 0.00 | 0.00 | 75 | 1020.8 |
| 20260830231018 | 28 | 338 | 1.6 | 1.6 | 0.00 | 0.00 | 0.00 | 71 | 1020.9 |
| 20260830230015 | 29 | 338 | 1.6 | 1.6 | 0.00 | 0.00 | 0.00 | 69 | 1021.1 |
| 20260830225037 | 30 | 338 | 1.6 | 1.6 | 0.00 | 0.00 | 0.00 | 68 | 1020.9 |
| 20260830224017 | 30 | 315 | 1.6 | 1.6 | 0.00 | 0.00 | 0.00 | 66 | 1021.0 |
| 20260830223017 | 31 | 315 | 1.6 | 1.6 | 0.00 | 0.00 | 0.00 | 63 | 1020.9 |
| 20260830222057 | 31 | 338 | 1.6 | 3.2 | 0.00 | 0.00 | 0.00 | 59 | 1021.1 |
| 20260830221021 | 31 | 0 | 1.6 | 3.2 | 0.00 | 0.00 | 0.00 | 60 | 1021.2 |
| 20260830220020 | 31 | 338 | 1.6 | 3.2 | 0.00 | 0.00 | 0.00 | 58 | 1021.2 |
| 20260830215024 | 31 | 0.0 | 3.2 | 0.00 | 0.00 | 0.00 | 53 | 1021.3 | |
| 20260830214017 | 31 | 0 | 3.2 | 4.8 | 0.00 | 0.00 | 0.00 | 53 | 1021.1 |
| 20260830213017 | 31 | 338 | 3.2 | 4.8 | 0.00 | 0.00 | 0.00 | 54 | 1021.2 |
| 20260830212017 | 32 | 0.0 | 3.2 | 0.00 | 0.00 | 0.00 | 54 | 1021.2 | |
| 20260830211017 | 31 | 293 | 1.6 | 4.8 | 0.00 | 0.00 | 0.00 | 53 | 1021.3 |
| 20260830210017 | 31 | 293 | 3.2 | 8.0 | 0.00 | 0.00 | 0.00 | 52 | 1021.3 |
| 20260830205037 | 32 | 315 | 3.2 | 6.4 | 0.00 | 0.00 | 0.00 | 53 | 1021.5 |
| 20260830204017 | 31 | 315 | 1.6 | 6.4 | 0.00 | 0.00 | 0.00 | 55 | 1021.6 |
| 20260830203057 | 31 | 270 | 1.6 | 4.8 | 0.00 | 0.00 | 0.00 | 56 | 1021.6 |
| 20260830202017 | 31 | 293 | 3.2 | 4.8 | 0.00 | 0.00 | 0.00 | 56 | 1021.7 |
| 20260830201017 | 31 | 225 | 1.6 | 4.8 | 0.00 | 0.00 | 0.00 | 58 | 1021.7 |
| 20260830200017 | 31 | 293 | 3.2 | 12.9 | 0.00 | 0.00 | 0.00 | 56 | 1021.9 |
| 20260830195017 | 31 | 23 | 3.2 | 6.4 | 0.00 | 0.00 | 0.00 | 56 | 1022.0 |
| 20260830194017 | 31 | 270 | 1.6 | 3.2 | 0.00 | 0.00 | 0.00 | 60 | 1022.1 |
| 20260830193017 | 31 | 23 | 1.6 | 4.8 | 0.00 | 0.00 | 0.00 | 59 | 1022.2 |
| 20260830192137 | 31 | 293 | 3.2 | 8.0 | 0.00 | 0.00 | 0.00 | 58 | 1022.5 |
| 20260830191017 | 31 | 338 | 4.8 | 9.7 | 0.00 | 0.00 | 0.00 | 58 | 1022.7 |
| 20260830190017 | 31 | 338 | 4.8 | 9.7 | 0.00 | 0.00 | 0.00 | 58 | 1022.7 |
| 20260830185037 | 30 | 180 | 3.2 | 9.7 | 0.00 | 0.00 | 0.00 | 60 | 1022.8 |
| 20260830184017 | 30 | 203 | 3.2 | 8.0 | 0.00 | 0.00 | 0.00 | 60 | 1022.9 |
| 20260830183057 | 30 | 203 | 1.6 | 4.8 | 0.00 | 0.00 | 0.00 | 60 | 1023.1 |
| 20260830182039 | 30 | 338 | 4.8 | 11.3 | 0.00 | 0.00 | 0.00 | 62 | 1023.5 |
| 20260830181017 | 30 | 0 | 3.2 | 8.0 | 0.00 | 0.00 | 0.00 | 65 | 1023.6 |
| 20260830180017 | 30 | 315 | 4.8 | 12.9 | 0.00 | 0.00 | 0.00 | 63 | 1023.7 |
| 20260830175037 | 30 | 45 | 3.2 | 6.4 | 0.00 | 0.00 | 0.00 | 62 | 1023.8 |
| 20260830174036 | 29 | 135 | 3.2 | 4.8 | 0.00 | 0.00 | 0.00 | 64 | 1024.0 |
| 20260830173017 | 29 | 180 | 1.6 | 6.4 | 0.00 | 0.00 | 0.00 | 66 | 1024.1 |
| 20260830172016 | 30 | 225 | 1.6 | 3.2 | 0.00 | 0.00 | 0.00 | 64 | 1024.1 |
| 20260830171020 | 29 | 225 | 1.6 | 4.8 | 0.00 | 0.00 | 0.00 | 66 | 1024.1 |
| 20260830170019 | 29 | 180 | 3.2 | 4.8 | 0.00 | 0.00 | 0.00 | 66 | 1024.2 |
| 20260830165040 | 29 | 113 | 1.6 | 3.2 | 0.00 | 0.00 | 0.00 | 68 | 1024.4 |
| 20260830164020 | 29 | 180 | 3.2 | 9.7 | 0.00 | 0.00 | 0.00 | 65 | 1024.4 |
| 20260830163016 | 29 | 293 | 4.8 | 11.3 | 0.00 | 0.00 | 0.00 | 67 | 1024.4 |
| 20260830162016 | 28 | 338 | 1.6 | 6.4 | 0.00 | 0.00 | 0.00 | 67 | 1024.4 |
| 20260830161016 | 28 | 113 | 3.2 | 6.4 | 0.00 | 0.00 | 0.00 | 70 | 1024.6 |
| 20260830160016 | 28 | 203 | 4.8 | 12.9 | 0.00 | 0.00 | 0.00 | 68 | 1024.7 |
| 20260830155037 | 28 | 225 | 4.8 | 11.3 | 0.00 | 0.00 | 0.00 | 69 | 1024.7 |
| 20260830154016 | 27 | 158 | 1.6 | 6.4 | 0.00 | 0.00 | 0.00 | 72 | 1024.8 |
| 20260830153016 | 27 | 203 | 3.2 | 8.0 | 0.00 | 0.00 | 0.00 | 72 | 1024.7 |
| 20260830152016 | 27 | 180 | 3.2 | 8.0 | 0.00 | 0.00 | 0.00 | 72 | 1024.8 |
| 20260830151016 | 27 | 225 | 1.6 | 4.8 | 0.00 | 0.00 | 0.00 | 74 | 1024.8 |
| 20260830150039 | 27 | 203 | 3.2 | 9.7 | 0.00 | 0.00 | 0.00 | 73 | 1024.7 |
| 20260830145024 | 27 | 225 | 3.2 | 6.4 | 0.00 | 0.00 | 0.00 | 73 | 1024.6 |
| 20260830144016 | 27 | 248 | 3.2 | 8.0 | 0.00 | 0.00 | 0.00 | 74 | 1024.5 |
| 20260830143019 | 26 | 203 | 4.8 | 9.7 | 0.00 | 0.00 | 0.00 | 75 | 1024.4 |
| 20260830142022 | 26 | 203 | 4.8 | 9.7 | 0.00 | 0.00 | 0.00 | 75 | 1024.5 |
| 20260830141016 | 26 | 225 | 3.2 | 8.0 | 0.00 | 0.00 | 0.00 | 77 | 1024.6 |
| 20260830140016 | 26 | 158 | 1.6 | 6.4 | 0.00 | 0.00 | 0.00 | 79 | 1024.7 |
| 20260830135036 | 26 | 180 | 1.6 | 4.8 | 0.00 | 0.00 | 0.00 | 77 | 1024.6 |
| 20260830134016 | 26 | 135 | 1.6 | 3.2 | 0.00 | 0.00 | 0.00 | 78 | 1024.6 |
| 20260830133016 | 25 | 0.0 | 3.2 | 0.00 | 0.00 | 0.00 | 82 | 1024.6 | |
| 20260830132016 | 25 | 225 | 1.6 | 4.8 | 0.00 | 0.00 | 0.00 | 84 | 1024.5 |
| 20260830131016 | 24 | 0.0 | 3.2 | 0.00 | 0.00 | 0.00 | 88 | 1024.3 | |
| 20260830130016 | 23 | 0.0 | 3.2 | 0.00 | 0.00 | 0.00 | 89 | 1024.1 | |
| 20260830125036 | 22 | 0.0 | 3.2 | 0.00 | 0.00 | 0.00 | 89 | 1023.9 | |
| 20260830124016 | 21 | 0.0 | 0.0 | 0.00 | 0.00 | 0.00 | 93 | 1023.8 | |
| 20260830123018 | 21 | 0.0 | 3.2 | 0.00 | 0.00 | 0.00 | 93 | 1023.8 | |
| 20260830122036 | 21 | 0.0 | 3.2 | 0.00 | 0.00 | 0.00 | 94 | 1023.9 | |
| 20260830121016 | 20 | 0.0 | 0.0 | 0.00 | 0.00 | 0.00 | 95 | 1023.6 | |
| 20260830120016 | 20 | 0.0 | 3.2 | 0.00 | 0.00 | 0.00 | 95 | 1023.5 | |
| 20260830115016 | 19 | 0.0 | 3.2 | 0.00 | 0.00 | 0.00 | 95 | 1023.5 | |
| 20260830114016 | 19 | 0.0 | 3.2 | 0.00 | 0.00 | 0.00 | 95 | 1023.3 | |
| 20260830113016 | 19 | 0.0 | 3.2 | 0.00 | 0.00 | 0.00 | 95 | 1023.3 | |
| 20260830112019 | 19 | 0.0 | 3.2 | 0.00 | 0.00 | 0.00 | 95 | 1023.4 | |
| 20260830111039 | 19 | 0.0 | 1.6 | 0.00 | 0.00 | 0.00 | 95 | 1023.3 | |
| 20260830110018 | 19 | 0 | 1.6 | 3.2 | 0.00 | 0.00 | 0.00 | 95 | 1023.2 |
| 20260830105018 | 19 | 0.0 | 3.2 | 0.00 | 0.00 | 0.00 | 95 | 1023.4 | |
| 20260830104015 | 19 | 0.0 | 3.2 | 0.00 | 0.00 | 0.00 | 95 | 1023.4 | |
| 20260830103036 | 19 | 0.0 | 3.2 | 0.00 | 0.00 | 0.00 | 95 | 1023.2 | |
| 20260830102036 | 19 | 0.0 | 3.2 | 0.00 | 0.00 | 0.00 | 95 | 1023.2 | |
| 20260830101056 | 19 | 0.0 | 3.2 | 0.00 | 0.00 | 0.00 | 94 | 1023.1 | |
| 20260830100016 | 19 | 0.0 | 0.0 | 0.00 | 0.00 | 0.00 | 95 | 1023.0 | |
| 20260830095055 | 19 | 0.0 | 3.2 | 0.00 | 0.00 | 0.00 | 95 | 1023.0 | |
| 20260830094016 | 19 | 90 | 1.6 | 1.6 | 0.00 | 0.00 | 0.00 | 95 | 1022.9 |
| 20260830093015 | 19 | 0.0 | 0.0 | 0.00 | 0.00 | 0.00 | 94 | 1022.7 | |
| 20260830092015 | 20 | 0.0 | 1.6 | 0.00 | 0.00 | 0.00 | 95 | 1022.8 | |
| 20260830091036 | 19 | 0 | 1.6 | 1.6 | 0.00 | 0.00 | 0.00 | 94 | 1022.8 |
| 20260830090019 | 19 | 0.0 | 3.2 | 0.00 | 0.00 | 0.00 | 94 | 1022.9 | |
| 20260830085015 | 20 | 0.0 | 0.0 | 0.00 | 0.00 | 0.00 | 94 | 1023.0 | |
| 20260830084015 | 20 | 338 | 1.6 | 1.6 | 0.00 | 0.00 | 0.00 | 94 | 1023.1 |
| 20260830083015 | 20 | 0.0 | 0.0 | 0.00 | 0.00 | 0.00 | 94 | 1023.0 | |
| 20260830082035 | 20 | 0.0 | 3.2 | 0.00 | 0.00 | 0.00 | 94 | 1023.0 | |
| 20260830081015 | 20 | 0.0 | 3.2 | 0.00 | 0.00 | 0.00 | 94 | 1023.0 | |
| 20260830080015 | 20 | 0.0 | 1.6 | 0.00 | 0.00 | 0.00 | 93 | 1022.9 | |
| 20260830075018 | 20 | 0.0 | 0.0 | 0.00 | 0.00 | 0.00 | 93 | 1022.8 | |
| 20260830074017 | 20 | 0.0 | 1.6 | 0.00 | 0.00 | 0.00 | 93 | 1022.8 | |
| 20260830073035 | 20 | 23 | 1.6 | 3.2 | 0.00 | 0.00 | 0.00 | 93 | 1022.9 |
| 20260830072057 | 20 | 0.0 | 1.6 | 0.00 | 0.00 | 0.00 | 92 | 1022.7 | |
| 20260830071017 | 20 | 0.0 | 1.6 | 0.00 | 0.00 | 0.00 | 92 | 1022.5 | |
| 20260830070037 | 20 | 23 | 1.6 | 1.6 | 0.00 | 0.00 | 0.00 | 92 | 1022.6 |
| 20260830065017 | 21 | 23 | 1.6 | 1.6 | 0.00 | 0.00 | 0.00 | 92 | 1022.7 |
| 20260830064017 | 21 | 0.0 | 1.6 | 0.00 | 0.00 | 0.00 | 91 | 1022.9 | |
| 20260830063020 | 21 | 0.0 | 3.2 | 0.00 | 0.00 | 0.00 | 90 | 1022.8 | |
| 20260830062020 | 21 | 0.0 | 3.2 | 0.00 | 0.00 | 0.00 | 90 | 1022.7 | |
| 20260830061028 | 21 | 0.0 | 3.2 | 0.00 | 0.00 | 0.00 | 89 | 1022.8 | |
| 20260830060017 | 22 | 45 | 1.6 | 1.6 | 0.00 | 0.00 | 0.00 | 89 | 1023.0 |
| 20260830055017 | 22 | 203 | 1.6 | 3.2 | 0.00 | 0.00 | 0.00 | 87 | 1022.9 |
| 20260830054017 | 22 | 0 | 1.6 | 4.8 | 0.00 | 0.00 | 0.00 | 87 | 1023.1 |
| 20260830053017 | 22 | 0.0 | 3.2 | 0.00 | 0.00 | 0.00 | 87 | 1023.1 | |
| 20260830052017 | 22 | 0.0 | 3.2 | 0.00 | 0.00 | 0.00 | 87 | 1023.1 | |
| 20260830051017 | 22 | 338 | 1.6 | 4.8 | 0.00 | 0.00 | 0.00 | 89 | 1023.0 |
| 20260830050017 | 22 | 0.0 | 3.2 | 0.00 | 0.00 | 0.00 | 88 | 1023.0 | |
| 20260830045017 | 21 | 338 | 1.6 | 3.2 | 0.00 | 0.00 | 0.00 | 90 | 1023.0 |
| 20260830044017 | 21 | 338 | 1.6 | 3.2 | 0.00 | 0.00 | 0.00 | 90 | 1022.8 |
| 20260830043037 | 21 | 0.0 | 3.2 | 0.00 | 0.00 | 0.00 | 91 | 1022.9 | |
| 20260830042017 | 21 | 0 | 1.6 | 3.2 | 0.00 | 0.00 | 0.00 | 91 | 1022.8 |
| 20260830041017 | 21 | 0 | 1.6 | 3.2 | 0.00 | 0.00 | 0.00 | 91 | 1022.8 |
| 20260830040017 | 21 | 0.0 | 0.0 | 0.00 | 0.00 | 0.00 | 90 | 1022.6 | |
| 20260830035016 | 21 | 0.0 | 3.2 | 0.00 | 0.00 | 0.00 | 90 | 1022.5 | |
| 20260830034016 | 21 | 0.0 | 3.2 | 0.00 | 0.00 | 0.00 | 90 | 1022.5 | |
| 20260830033016 | 22 | 338 | 1.6 | 3.2 | 0.00 | 0.00 | 0.00 | 89 | 1022.6 |
| 20260830032016 | 22 | 0.0 | 3.2 | 0.00 | 0.00 | 0.00 | 89 | 1022.8 | |
| 20260830031018 | 22 | 0 | 1.6 | 3.2 | 0.00 | 0.00 | 0.00 | 88 | 1022.8 |
| 20260830030018 | 22 | 0.0 | 3.2 | 0.00 | 0.00 | 0.00 | 87 | 1022.8 | |
| 20260830025015 | 22 | 0.0 | 0.0 | 0.00 | 0.00 | 0.00 | 86 | 1022.6 | |
| 20260830024016 | 22 | 0.0 | 0.0 | 0.00 | 0.00 | 0.00 | 85 | 1022.4 | |
| 20260830023016 | 23 | 0.0 | 1.6 | 0.00 | 0.00 | 0.00 | 85 | 1022.4 |